sensor_id;sensor_type;location;lat;lon;timestamp;P1;durP1;ratioP1;P2;durP2;ratioP2
9675;SDS011;4876;42.656;23.292;2023-05-07T00:02:03;15.23;;;10.13;;
9675;SDS011;4876;42.656;23.292;2023-05-07T00:04:30;14.03;;;10.07;;
9675;SDS011;4876;42.656;23.292;2023-05-07T00:07:01;11.80;;;9.57;;
9675;SDS011;4876;42.656;23.292;2023-05-07T00:09:29;12.60;;;9.27;;
9675;SDS011;4876;42.656;23.292;2023-05-07T00:11:55;14.17;;;9.83;;
9675;SDS011;4876;42.656;23.292;2023-05-07T00:14:22;14.30;;;8.70;;
9675;SDS011;4876;42.656;23.292;2023-05-07T00:16:49;14.17;;;9.73;;
9675;SDS011;4876;42.656;23.292;2023-05-07T00:19:17;13.90;;;9.67;;
9675;SDS011;4876;42.656;23.292;2023-05-07T00:21:44;12.50;;;9.27;;
9675;SDS011;4876;42.656;23.292;2023-05-07T00:24:11;19.83;;;10.17;;
9675;SDS011;4876;42.656;23.292;2023-05-07T00:26:38;12.50;;;9.30;;
9675;SDS011;4876;42.656;23.292;2023-05-07T00:29:04;20.73;;;10.83;;
9675;SDS011;4876;42.656;23.292;2023-05-07T00:31:31;13.50;;;9.97;;
9675;SDS011;4876;42.656;23.292;2023-05-07T00:33:58;17.47;;;10.70;;
9675;SDS011;4876;42.656;23.292;2023-05-07T00:36:26;14.00;;;9.30;;
9675;SDS011;4876;42.656;23.292;2023-05-07T00:38:53;12.67;;;9.20;;
9675;SDS011;4876;42.656;23.292;2023-05-07T00:41:20;13.43;;;9.73;;
9675;SDS011;4876;42.656;23.292;2023-05-07T00:43:47;15.63;;;10.33;;
9675;SDS011;4876;42.656;23.292;2023-05-07T00:46:16;12.93;;;9.33;;
9675;SDS011;4876;42.656;23.292;2023-05-07T00:48:44;11.17;;;9.43;;
9675;SDS011;4876;42.656;23.292;2023-05-07T00:51:11;10.97;;;8.57;;
9675;SDS011;4876;42.656;23.292;2023-05-07T00:53:40;14.27;;;9.50;;
9675;SDS011;4876;42.656;23.292;2023-05-07T00:56:06;12.77;;;9.23;;
9675;SDS011;4876;42.656;23.292;2023-05-07T00:58:33;12.93;;;9.50;;
9675;SDS011;4876;42.656;23.292;2023-05-07T01:01:01;11.27;;;9.23;;
9675;SDS011;4876;42.656;23.292;2023-05-07T01:03:28;14.00;;;8.97;;
9675;SDS011;4876;42.656;23.292;2023-05-07T01:05:55;10.37;;;7.97;;
9675;SDS011;4876;42.656;23.292;2023-05-07T01:08:23;10.63;;;7.53;;
9675;SDS011;4876;42.656;23.292;2023-05-07T01:10:54;8.73;;;7.40;;
9675;SDS011;4876;42.656;23.292;2023-05-07T01:13:22;7.23;;;6.43;;
9675;SDS011;4876;42.656;23.292;2023-05-07T01:15:51;8.17;;;6.60;;
9675;SDS011;4876;42.656;23.292;2023-05-07T01:18:17;13.90;;;8.30;;
9675;SDS011;4876;42.656;23.292;2023-05-07T01:20:44;10.20;;;9.17;;
9675;SDS011;4876;42.656;23.292;2023-05-07T01:23:13;11.90;;;8.23;;
9675;SDS011;4876;42.656;23.292;2023-05-07T01:25:40;12.70;;;8.73;;
9675;SDS011;4876;42.656;23.292;2023-05-07T01:28:07;12.07;;;8.07;;
9675;SDS011;4876;42.656;23.292;2023-05-07T01:30:33;10.60;;;8.53;;
9675;SDS011;4876;42.656;23.292;2023-05-07T01:33:02;11.07;;;8.40;;
9675;SDS011;4876;42.656;23.292;2023-05-07T01:35:37;10.13;;;8.80;;
9675;SDS011;4876;42.656;23.292;2023-05-07T01:38:08;9.80;;;7.80;;
9675;SDS011;4876;42.656;23.292;2023-05-07T01:40:36;10.17;;;7.90;;
9675;SDS011;4876;42.656;23.292;2023-05-07T01:43:03;15.90;;;9.13;;
9675;SDS011;4876;42.656;23.292;2023-05-07T01:45:31;13.10;;;8.90;;
9675;SDS011;4876;42.656;23.292;2023-05-07T01:48:00;11.00;;;8.07;;
9675;SDS011;4876;42.656;23.292;2023-05-07T01:50:28;11.87;;;8.67;;
9675;SDS011;4876;42.656;23.292;2023-05-07T01:52:55;14.90;;;8.27;;
9675;SDS011;4876;42.656;23.292;2023-05-07T01:55:22;11.07;;;7.77;;
9675;SDS011;4876;42.656;23.292;2023-05-07T01:57:50;15.43;;;8.50;;
9675;SDS011;4876;42.656;23.292;2023-05-07T02:00:17;11.03;;;8.13;;
9675;SDS011;4876;42.656;23.292;2023-05-07T02:02:45;14.57;;;9.13;;
9675;SDS011;4876;42.656;23.292;2023-05-07T02:05:11;10.70;;;8.17;;
9675;SDS011;4876;42.656;23.292;2023-05-07T02:07:38;12.00;;;8.50;;
9675;SDS011;4876;42.656;23.292;2023-05-07T02:10:06;12.90;;;8.67;;
9675;SDS011;4876;42.656;23.292;2023-05-07T02:12:33;11.53;;;9.13;;
9675;SDS011;4876;42.656;23.292;2023-05-07T02:15:01;10.70;;;8.20;;
9675;SDS011;4876;42.656;23.292;2023-05-07T02:17:28;13.47;;;8.10;;
9675;SDS011;4876;42.656;23.292;2023-05-07T02:19:56;8.70;;;7.37;;
9675;SDS011;4876;42.656;23.292;2023-05-07T02:22:23;9.23;;;7.83;;
9675;SDS011;4876;42.656;23.292;2023-05-07T02:24:50;11.37;;;7.87;;
9675;SDS011;4876;42.656;23.292;2023-05-07T02:27:17;12.00;;;8.63;;
9675;SDS011;4876;42.656;23.292;2023-05-07T02:29:44;15.53;;;8.63;;
9675;SDS011;4876;42.656;23.292;2023-05-07T02:32:12;9.00;;;7.90;;
9675;SDS011;4876;42.656;23.292;2023-05-07T02:34:38;13.57;;;8.53;;
9675;SDS011;4876;42.656;23.292;2023-05-07T02:37:05;9.80;;;7.97;;
9675;SDS011;4876;42.656;23.292;2023-05-07T02:39:32;11.00;;;8.17;;
9675;SDS011;4876;42.656;23.292;2023-05-07T02:41:58;9.50;;;7.93;;
9675;SDS011;4876;42.656;23.292;2023-05-07T02:44:26;10.53;;;8.13;;
9675;SDS011;4876;42.656;23.292;2023-05-07T02:46:56;10.73;;;9.30;;
9675;SDS011;4876;42.656;23.292;2023-05-07T02:49:24;13.60;;;8.10;;
9675;SDS011;4876;42.656;23.292;2023-05-07T02:51:51;15.73;;;8.57;;
9675;SDS011;4876;42.656;23.292;2023-05-07T02:54:17;23.87;;;8.50;;
9675;SDS011;4876;42.656;23.292;2023-05-07T02:56:44;14.00;;;8.27;;
9675;SDS011;4876;42.656;23.292;2023-05-07T02:59:11;14.73;;;8.87;;
9675;SDS011;4876;42.656;23.292;2023-05-07T03:01:38;9.30;;;8.30;;
9675;SDS011;4876;42.656;23.292;2023-05-07T03:04:04;11.97;;;8.10;;
9675;SDS011;4876;42.656;23.292;2023-05-07T03:06:33;11.83;;;8.33;;
9675;SDS011;4876;42.656;23.292;2023-05-07T03:08:59;12.53;;;9.13;;
9675;SDS011;4876;42.656;23.292;2023-05-07T03:11:26;13.07;;;8.53;;
9675;SDS011;4876;42.656;23.292;2023-05-07T03:13:53;9.53;;;8.17;;
9675;SDS011;4876;42.656;23.292;2023-05-07T03:16:20;10.77;;;8.53;;
9675;SDS011;4876;42.656;23.292;2023-05-07T03:18:47;12.13;;;7.80;;
9675;SDS011;4876;42.656;23.292;2023-05-07T03:21:13;10.00;;;8.70;;
9675;SDS011;4876;42.656;23.292;2023-05-07T03:23:42;10.17;;;8.27;;
9675;SDS011;4876;42.656;23.292;2023-05-07T03:26:08;9.73;;;8.73;;
9675;SDS011;4876;42.656;23.292;2023-05-07T03:28:35;9.73;;;7.90;;
9675;SDS011;4876;42.656;23.292;2023-05-07T03:31:02;10.53;;;8.17;;
9675;SDS011;4876;42.656;23.292;2023-05-07T03:33:32;11.27;;;8.13;;
9675;SDS011;4876;42.656;23.292;2023-05-07T03:35:59;10.87;;;7.67;;
9675;SDS011;4876;42.656;23.292;2023-05-07T03:38:26;10.07;;;7.33;;
9675;SDS011;4876;42.656;23.292;2023-05-07T03:40:54;10.60;;;7.60;;
9675;SDS011;4876;42.656;23.292;2023-05-07T03:43:21;10.17;;;7.70;;
9675;SDS011;4876;42.656;23.292;2023-05-07T03:45:47;14.13;;;7.27;;
9675;SDS011;4876;42.656;23.292;2023-05-07T03:48:14;13.57;;;7.17;;
9675;SDS011;4876;42.656;23.292;2023-05-07T03:50:41;12.40;;;7.17;;
9675;SDS011;4876;42.656;23.292;2023-05-07T03:53:07;8.37;;;6.97;;
9675;SDS011;4876;42.656;23.292;2023-05-07T03:55:34;12.30;;;7.00;;
9675;SDS011;4876;42.656;23.292;2023-05-07T03:58:02;11.07;;;7.23;;
9675;SDS011;4876;42.656;23.292;2023-05-07T04:00:29;11.47;;;7.80;;
9675;SDS011;4876;42.656;23.292;2023-05-07T04:02:58;11.13;;;7.20;;
9675;SDS011;4876;42.656;23.292;2023-05-07T04:05:25;8.67;;;7.77;;
9675;SDS011;4876;42.656;23.292;2023-05-07T04:07:52;10.80;;;7.23;;
9675;SDS011;4876;42.656;23.292;2023-05-07T04:10:19;11.23;;;7.37;;
9675;SDS011;4876;42.656;23.292;2023-05-07T04:12:45;11.00;;;7.27;;
9675;SDS011;4876;42.656;23.292;2023-05-07T04:15:14;10.53;;;7.53;;
9675;SDS011;4876;42.656;23.292;2023-05-07T04:17:40;12.80;;;8.50;;
9675;SDS011;4876;42.656;23.292;2023-05-07T04:20:08;11.90;;;7.30;;
9675;SDS011;4876;42.656;23.292;2023-05-07T04:22:36;10.43;;;7.53;;
9675;SDS011;4876;42.656;23.292;2023-05-07T04:25:03;12.07;;;8.10;;
9675;SDS011;4876;42.656;23.292;2023-05-07T04:27:30;11.23;;;7.60;;
9675;SDS011;4876;42.656;23.292;2023-05-07T04:29:57;11.37;;;8.57;;
9675;SDS011;4876;42.656;23.292;2023-05-07T04:32:27;10.63;;;7.13;;
9675;SDS011;4876;42.656;23.292;2023-05-07T04:34:54;9.70;;;7.00;;
9675;SDS011;4876;42.656;23.292;2023-05-07T04:37:21;10.33;;;7.37;;
9675;SDS011;4876;42.656;23.292;2023-05-07T04:39:47;9.00;;;7.20;;
9675;SDS011;4876;42.656;23.292;2023-05-07T04:42:14;9.50;;;7.47;;
9675;SDS011;4876;42.656;23.292;2023-05-07T04:44:41;11.17;;;7.50;;
9675;SDS011;4876;42.656;23.292;2023-05-07T04:47:08;9.20;;;7.40;;
9675;SDS011;4876;42.656;23.292;2023-05-07T04:49:36;8.07;;;7.23;;
9675;SDS011;4876;42.656;23.292;2023-05-07T04:52:03;8.90;;;7.90;;
9675;SDS011;4876;42.656;23.292;2023-05-07T04:54:30;8.83;;;7.93;;
9675;SDS011;4876;42.656;23.292;2023-05-07T04:56:57;14.80;;;7.57;;
9675;SDS011;4876;42.656;23.292;2023-05-07T04:59:24;11.87;;;7.93;;
9675;SDS011;4876;42.656;23.292;2023-05-07T05:01:50;14.33;;;8.47;;
9675;SDS011;4876;42.656;23.292;2023-05-07T05:04:17;9.80;;;8.17;;
9675;SDS011;4876;42.656;23.292;2023-05-07T05:06:46;10.97;;;7.67;;
9675;SDS011;4876;42.656;23.292;2023-05-07T05:09:12;12.97;;;7.70;;
9675;SDS011;4876;42.656;23.292;2023-05-07T05:11:39;12.93;;;7.63;;
9675;SDS011;4876;42.656;23.292;2023-05-07T05:14:06;12.80;;;7.93;;
9675;SDS011;4876;42.656;23.292;2023-05-07T05:16:33;8.30;;;7.50;;
9675;SDS011;4876;42.656;23.292;2023-05-07T05:19:01;13.70;;;8.00;;
9675;SDS011;4876;42.656;23.292;2023-05-07T05:21:27;10.10;;;8.43;;
9675;SDS011;4876;42.656;23.292;2023-05-07T05:23:56;8.87;;;7.97;;
9675;SDS011;4876;42.656;23.292;2023-05-07T05:26:22;10.23;;;7.73;;
9675;SDS011;4876;42.656;23.292;2023-05-07T05:28:49;10.17;;;8.07;;
9675;SDS011;4876;42.656;23.292;2023-05-07T05:31:16;13.07;;;7.60;;
9675;SDS011;4876;42.656;23.292;2023-05-07T05:33:43;10.43;;;8.13;;
9675;SDS011;4876;42.656;23.292;2023-05-07T05:36:09;9.80;;;7.63;;
9675;SDS011;4876;42.656;23.292;2023-05-07T05:38:37;11.07;;;8.00;;
9675;SDS011;4876;42.656;23.292;2023-05-07T05:41:05;10.80;;;7.90;;
9675;SDS011;4876;42.656;23.292;2023-05-07T05:43:32;11.23;;;7.93;;
9675;SDS011;4876;42.656;23.292;2023-05-07T05:45:59;11.17;;;8.50;;
9675;SDS011;4876;42.656;23.292;2023-05-07T05:48:25;8.63;;;7.83;;
9675;SDS011;4876;42.656;23.292;2023-05-07T05:50:52;10.13;;;8.37;;
9675;SDS011;4876;42.656;23.292;2023-05-07T05:53:19;11.90;;;8.93;;
9675;SDS011;4876;42.656;23.292;2023-05-07T05:55:46;11.17;;;7.93;;
9675;SDS011;4876;42.656;23.292;2023-05-07T05:58:14;13.03;;;8.00;;
9675;SDS011;4876;42.656;23.292;2023-05-07T06:00:41;12.17;;;8.73;;
9675;SDS011;4876;42.656;23.292;2023-05-07T06:03:08;9.93;;;8.60;;
9675;SDS011;4876;42.656;23.292;2023-05-07T06:05:35;9.03;;;7.67;;
9675;SDS011;4876;42.656;23.292;2023-05-07T06:08:02;23.87;;;9.37;;
9675;SDS011;4876;42.656;23.292;2023-05-07T06:10:29;9.30;;;7.53;;
9675;SDS011;4876;42.656;23.292;2023-05-07T06:12:56;9.40;;;8.43;;
9675;SDS011;4876;42.656;23.292;2023-05-07T06:15:24;10.83;;;8.00;;
9675;SDS011;4876;42.656;23.292;2023-05-07T06:17:51;12.03;;;8.30;;
9675;SDS011;4876;42.656;23.292;2023-05-07T06:20:18;18.23;;;8.67;;
9675;SDS011;4876;42.656;23.292;2023-05-07T06:22:44;10.03;;;7.97;;
9675;SDS011;4876;42.656;23.292;2023-05-07T06:25:11;9.33;;;7.83;;
9675;SDS011;4876;42.656;23.292;2023-05-07T06:27:38;9.83;;;7.50;;
9675;SDS011;4876;42.656;23.292;2023-05-07T06:30:06;10.97;;;8.00;;
9675;SDS011;4876;42.656;23.292;2023-05-07T06:32:34;11.07;;;7.33;;
9675;SDS011;4876;42.656;23.292;2023-05-07T06:35:02;13.93;;;6.80;;
9675;SDS011;4876;42.656;23.292;2023-05-07T06:37:29;12.07;;;7.17;;
9675;SDS011;4876;42.656;23.292;2023-05-07T06:39:56;9.97;;;7.30;;
9675;SDS011;4876;42.656;23.292;2023-05-07T06:42:23;11.53;;;6.77;;
9675;SDS011;4876;42.656;23.292;2023-05-07T06:44:50;8.20;;;6.50;;
9675;SDS011;4876;42.656;23.292;2023-05-07T06:47:16;8.87;;;6.70;;
9675;SDS011;4876;42.656;23.292;2023-05-07T06:49:44;10.60;;;5.93;;
9675;SDS011;4876;42.656;23.292;2023-05-07T06:52:11;8.43;;;6.80;;
9675;SDS011;4876;42.656;23.292;2023-05-07T06:54:38;7.97;;;6.90;;
9675;SDS011;4876;42.656;23.292;2023-05-07T06:57:05;12.33;;;6.90;;
9675;SDS011;4876;42.656;23.292;2023-05-07T06:59:32;10.20;;;7.10;;
9675;SDS011;4876;42.656;23.292;2023-05-07T07:01:59;10.50;;;6.33;;
9675;SDS011;4876;42.656;23.292;2023-05-07T07:04:25;9.00;;;7.50;;
9675;SDS011;4876;42.656;23.292;2023-05-07T07:06:54;10.47;;;7.27;;
9675;SDS011;4876;42.656;23.292;2023-05-07T07:09:22;12.13;;;6.83;;
9675;SDS011;4876;42.656;23.292;2023-05-07T07:11:49;9.07;;;6.40;;
9675;SDS011;4876;42.656;23.292;2023-05-07T07:14:15;7.60;;;6.43;;
9675;SDS011;4876;42.656;23.292;2023-05-07T07:16:42;10.27;;;6.70;;
9675;SDS011;4876;42.656;23.292;2023-05-07T07:19:09;12.03;;;7.30;;
9675;SDS011;4876;42.656;23.292;2023-05-07T07:21:36;9.57;;;6.50;;
9675;SDS011;4876;42.656;23.292;2023-05-07T07:24:04;8.80;;;6.37;;
9675;SDS011;4876;42.656;23.292;2023-05-07T07:26:31;11.60;;;7.07;;
9675;SDS011;4876;42.656;23.292;2023-05-07T07:28:58;9.20;;;6.50;;
9675;SDS011;4876;42.656;23.292;2023-05-07T07:31:24;9.67;;;6.53;;
9675;SDS011;4876;42.656;23.292;2023-05-07T07:33:51;10.03;;;6.87;;
9675;SDS011;4876;42.656;23.292;2023-05-07T07:36:18;11.40;;;7.87;;
9675;SDS011;4876;42.656;23.292;2023-05-07T07:38:45;10.47;;;7.60;;
9675;SDS011;4876;42.656;23.292;2023-05-07T07:41:13;11.83;;;7.07;;
9675;SDS011;4876;42.656;23.292;2023-05-07T07:43:39;11.60;;;7.40;;
9675;SDS011;4876;42.656;23.292;2023-05-07T07:46:06;9.67;;;6.50;;
9675;SDS011;4876;42.656;23.292;2023-05-07T07:48:33;11.33;;;6.87;;
9675;SDS011;4876;42.656;23.292;2023-05-07T07:50:59;9.23;;;7.50;;
9675;SDS011;4876;42.656;23.292;2023-05-07T07:53:26;12.90;;;7.00;;
9675;SDS011;4876;42.656;23.292;2023-05-07T07:55:53;7.07;;;6.37;;
9675;SDS011;4876;42.656;23.292;2023-05-07T07:58:21;8.27;;;7.23;;
9675;SDS011;4876;42.656;23.292;2023-05-07T08:00:49;8.60;;;7.10;;
9675;SDS011;4876;42.656;23.292;2023-05-07T08:03:16;8.33;;;6.90;;
9675;SDS011;4876;42.656;23.292;2023-05-07T08:05:44;11.63;;;6.70;;
9675;SDS011;4876;42.656;23.292;2023-05-07T08:08:11;11.57;;;7.13;;
9675;SDS011;4876;42.656;23.292;2023-05-07T08:10:38;9.10;;;6.00;;
9675;SDS011;4876;42.656;23.292;2023-05-07T08:13:05;12.63;;;7.23;;
9675;SDS011;4876;42.656;23.292;2023-05-07T08:15:33;8.90;;;6.80;;
9675;SDS011;4876;42.656;23.292;2023-05-07T08:18:00;7.23;;;6.53;;
9675;SDS011;4876;42.656;23.292;2023-05-07T08:20:28;11.97;;;8.43;;
9675;SDS011;4876;42.656;23.292;2023-05-07T08:22:54;11.00;;;7.60;;
9675;SDS011;4876;42.656;23.292;2023-05-07T08:25:21;10.17;;;7.37;;
9675;SDS011;4876;42.656;23.292;2023-05-07T08:27:48;12.23;;;7.13;;
9675;SDS011;4876;42.656;23.292;2023-05-07T08:30:15;9.73;;;7.43;;
9675;SDS011;4876;42.656;23.292;2023-05-07T08:32:43;8.70;;;6.63;;
9675;SDS011;4876;42.656;23.292;2023-05-07T08:35:10;7.23;;;6.47;;
9675;SDS011;4876;42.656;23.292;2023-05-07T08:37:37;12.83;;;6.87;;
9675;SDS011;4876;42.656;23.292;2023-05-07T08:40:04;6.63;;;6.03;;
9675;SDS011;4876;42.656;23.292;2023-05-07T08:42:32;12.50;;;7.00;;
9675;SDS011;4876;42.656;23.292;2023-05-07T08:45:02;10.83;;;7.37;;
9675;SDS011;4876;42.656;23.292;2023-05-07T08:47:34;9.50;;;6.93;;
9675;SDS011;4876;42.656;23.292;2023-05-07T08:50:10;7.80;;;6.40;;
9675;SDS011;4876;42.656;23.292;2023-05-07T08:52:37;8.13;;;6.17;;
9675;SDS011;4876;42.656;23.292;2023-05-07T08:55:05;7.60;;;5.87;;
9675;SDS011;4876;42.656;23.292;2023-05-07T08:57:33;8.13;;;6.37;;
9675;SDS011;4876;42.656;23.292;2023-05-07T09:00:00;12.93;;;7.10;;
9675;SDS011;4876;42.656;23.292;2023-05-07T09:02:28;9.13;;;5.97;;
9675;SDS011;4876;42.656;23.292;2023-05-07T09:04:55;11.93;;;6.10;;
9675;SDS011;4876;42.656;23.292;2023-05-07T09:07:23;8.33;;;5.37;;
9675;SDS011;4876;42.656;23.292;2023-05-07T09:09:51;12.43;;;5.70;;
9675;SDS011;4876;42.656;23.292;2023-05-07T09:12:17;8.83;;;5.60;;
9675;SDS011;4876;42.656;23.292;2023-05-07T09:14:45;8.40;;;6.33;;
9675;SDS011;4876;42.656;23.292;2023-05-07T09:17:12;6.97;;;5.50;;
9675;SDS011;4876;42.656;23.292;2023-05-07T09:19:38;12.73;;;5.40;;
9675;SDS011;4876;42.656;23.292;2023-05-07T09:22:06;8.53;;;5.97;;
9675;SDS011;4876;42.656;23.292;2023-05-07T09:24:34;11.57;;;5.73;;
9675;SDS011;4876;42.656;23.292;2023-05-07T09:27:03;7.47;;;5.97;;
9675;SDS011;4876;42.656;23.292;2023-05-07T09:29:30;6.60;;;5.70;;
9675;SDS011;4876;42.656;23.292;2023-05-07T09:32:00;6.63;;;5.40;;
9675;SDS011;4876;42.656;23.292;2023-05-07T09:34:28;8.77;;;5.80;;
9675;SDS011;4876;42.656;23.292;2023-05-07T09:36:55;8.00;;;5.40;;
9675;SDS011;4876;42.656;23.292;2023-05-07T09:39:22;5.90;;;5.30;;
9675;SDS011;4876;42.656;23.292;2023-05-07T09:41:51;7.90;;;5.43;;
9675;SDS011;4876;42.656;23.292;2023-05-07T09:44:20;5.83;;;5.23;;
9675;SDS011;4876;42.656;23.292;2023-05-07T09:46:48;11.27;;;5.20;;
9675;SDS011;4876;42.656;23.292;2023-05-07T09:49:20;6.60;;;5.57;;
9675;SDS011;4876;42.656;23.292;2023-05-07T09:51:49;8.67;;;4.87;;
9675;SDS011;4876;42.656;23.292;2023-05-07T09:54:17;6.60;;;5.33;;
9675;SDS011;4876;42.656;23.292;2023-05-07T09:56:44;8.73;;;5.37;;
9675;SDS011;4876;42.656;23.292;2023-05-07T09:59:14;10.00;;;5.27;;
9675;SDS011;4876;42.656;23.292;2023-05-07T10:01:43;8.23;;;5.40;;
9675;SDS011;4876;42.656;23.292;2023-05-07T10:04:10;10.93;;;5.60;;
9675;SDS011;4876;42.656;23.292;2023-05-07T10:06:38;7.33;;;5.10;;
9675;SDS011;4876;42.656;23.292;2023-05-07T10:09:06;10.40;;;4.80;;
9675;SDS011;4876;42.656;23.292;2023-05-07T10:11:33;5.90;;;4.27;;
9675;SDS011;4876;42.656;23.292;2023-05-07T10:14:01;5.33;;;3.80;;
9675;SDS011;4876;42.656;23.292;2023-05-07T10:16:30;5.90;;;4.60;;
9675;SDS011;4876;42.656;23.292;2023-05-07T10:19:01;7.37;;;4.03;;
9675;SDS011;4876;42.656;23.292;2023-05-07T10:21:28;9.43;;;4.30;;
9675;SDS011;4876;42.656;23.292;2023-05-07T10:23:57;5.83;;;4.97;;
9675;SDS011;4876;42.656;23.292;2023-05-07T10:26:25;6.77;;;4.70;;
9675;SDS011;4876;42.656;23.292;2023-05-07T10:28:57;4.83;;;4.30;;
9675;SDS011;4876;42.656;23.292;2023-05-07T10:34:20;12.10;;;4.80;;
9675;SDS011;4876;42.656;23.292;2023-05-07T10:36:49;7.27;;;5.10;;
9675;SDS011;4876;42.656;23.292;2023-05-07T10:39:18;4.90;;;4.50;;
9675;SDS011;4876;42.656;23.292;2023-05-07T10:41:47;8.30;;;5.50;;
9675;SDS011;4876;42.656;23.292;2023-05-07T10:44:24;9.13;;;5.30;;
9675;SDS011;4876;42.656;23.292;2023-05-07T10:47:04;8.77;;;5.23;;
9675;SDS011;4876;42.656;23.292;2023-05-07T10:49:34;6.67;;;5.00;;
9675;SDS011;4876;42.656;23.292;2023-05-07T10:52:11;10.07;;;5.23;;
9675;SDS011;4876;42.656;23.292;2023-05-07T10:54:38;11.13;;;5.80;;
9675;SDS011;4876;42.656;23.292;2023-05-07T11:00:02;5.37;;;4.33;;
9675;SDS011;4876;42.656;23.292;2023-05-07T11:05:33;5.77;;;4.53;;
9675;SDS011;4876;42.656;23.292;2023-05-07T11:08:01;6.20;;;5.03;;
9675;SDS011;4876;42.656;23.292;2023-05-07T11:10:47;7.83;;;5.30;;
9675;SDS011;4876;42.656;23.292;2023-05-07T11:13:15;9.53;;;4.90;;
9675;SDS011;4876;42.656;23.292;2023-05-07T11:15:43;9.67;;;5.07;;
9675;SDS011;4876;42.656;23.292;2023-05-07T11:18:13;8.73;;;5.00;;
9675;SDS011;4876;42.656;23.292;2023-05-07T11:20:47;10.17;;;5.17;;
9675;SDS011;4876;42.656;23.292;2023-05-07T11:26:42;4.43;;;3.93;;
9675;SDS011;4876;42.656;23.292;2023-05-07T11:29:15;8.57;;;4.87;;
9675;SDS011;4876;42.656;23.292;2023-05-07T11:31:42;9.00;;;4.80;;
9675;SDS011;4876;42.656;23.292;2023-05-07T11:34:10;7.87;;;4.87;;
9675;SDS011;4876;42.656;23.292;2023-05-07T11:36:41;7.17;;;4.60;;
9675;SDS011;4876;42.656;23.292;2023-05-07T11:39:27;6.30;;;4.40;;
9675;SDS011;4876;42.656;23.292;2023-05-07T11:41:56;4.97;;;4.57;;
9675;SDS011;4876;42.656;23.292;2023-05-07T11:44:23;5.83;;;4.27;;
9675;SDS011;4876;42.656;23.292;2023-05-07T11:46:50;7.67;;;4.63;;
9675;SDS011;4876;42.656;23.292;2023-05-07T11:49:18;5.27;;;4.60;;
9675;SDS011;4876;42.656;23.292;2023-05-07T11:51:45;6.70;;;4.20;;
9675;SDS011;4876;42.656;23.292;2023-05-07T11:54:15;10.27;;;4.47;;
9675;SDS011;4876;42.656;23.292;2023-05-07T11:56:43;4.73;;;4.23;;
9675;SDS011;4876;42.656;23.292;2023-05-07T11:59:11;4.53;;;3.83;;
9675;SDS011;4876;42.656;23.292;2023-05-07T12:01:37;5.90;;;4.23;;
9675;SDS011;4876;42.656;23.292;2023-05-07T12:04:04;7.47;;;4.33;;
9675;SDS011;4876;42.656;23.292;2023-05-07T12:06:35;5.23;;;4.10;;
9675;SDS011;4876;42.656;23.292;2023-05-07T12:09:03;9.70;;;4.30;;
9675;SDS011;4876;42.656;23.292;2023-05-07T12:11:32;7.43;;;4.00;;
9675;SDS011;4876;42.656;23.292;2023-05-07T12:13:59;4.53;;;4.00;;
9675;SDS011;4876;42.656;23.292;2023-05-07T12:16:25;5.00;;;3.80;;
9675;SDS011;4876;42.656;23.292;2023-05-07T12:18:53;6.40;;;4.00;;
9675;SDS011;4876;42.656;23.292;2023-05-07T12:21:20;7.03;;;3.90;;
9675;SDS011;4876;42.656;23.292;2023-05-07T12:23:49;4.63;;;3.70;;
9675;SDS011;4876;42.656;23.292;2023-05-07T12:26:16;5.60;;;3.63;;
9675;SDS011;4876;42.656;23.292;2023-05-07T12:28:42;5.20;;;3.43;;
9675;SDS011;4876;42.656;23.292;2023-05-07T12:31:09;4.80;;;3.57;;
9675;SDS011;4876;42.656;23.292;2023-05-07T12:33:36;6.80;;;3.87;;
9675;SDS011;4876;42.656;23.292;2023-05-07T12:36:03;6.70;;;3.60;;
9675;SDS011;4876;42.656;23.292;2023-05-07T12:38:36;3.70;;;3.40;;
9675;SDS011;4876;42.656;23.292;2023-05-07T12:41:06;4.77;;;3.20;;
9675;SDS011;4876;42.656;23.292;2023-05-07T12:43:35;3.57;;;3.27;;
9675;SDS011;4876;42.656;23.292;2023-05-07T12:46:03;4.20;;;3.80;;
9675;SDS011;4876;42.656;23.292;2023-05-07T12:48:31;3.67;;;3.07;;
9675;SDS011;4876;42.656;23.292;2023-05-07T12:50:59;7.00;;;3.37;;
9675;SDS011;4876;42.656;23.292;2023-05-07T12:53:27;3.73;;;3.30;;
9675;SDS011;4876;42.656;23.292;2023-05-07T12:55:55;6.77;;;4.10;;
9675;SDS011;4876;42.656;23.292;2023-05-07T12:58:26;4.83;;;3.50;;
9675;SDS011;4876;42.656;23.292;2023-05-07T13:00:53;4.83;;;3.50;;
9675;SDS011;4876;42.656;23.292;2023-05-07T13:03:24;3.50;;;3.20;;
9675;SDS011;4876;42.656;23.292;2023-05-07T13:05:52;5.47;;;3.37;;
9675;SDS011;4876;42.656;23.292;2023-05-07T13:08:23;6.40;;;3.77;;
9675;SDS011;4876;42.656;23.292;2023-05-07T13:10:51;4.43;;;3.13;;
9675;SDS011;4876;42.656;23.292;2023-05-07T13:13:18;5.50;;;3.63;;
9675;SDS011;4876;42.656;23.292;2023-05-07T13:15:46;4.23;;;3.40;;
9675;SDS011;4876;42.656;23.292;2023-05-07T13:18:13;3.63;;;3.33;;
9675;SDS011;4876;42.656;23.292;2023-05-07T13:20:40;5.50;;;3.60;;
9675;SDS011;4876;42.656;23.292;2023-05-07T13:23:07;4.00;;;3.60;;
9675;SDS011;4876;42.656;23.292;2023-05-07T13:25:34;4.10;;;3.70;;
9675;SDS011;4876;42.656;23.292;2023-05-07T13:28:00;4.03;;;3.10;;
9675;SDS011;4876;42.656;23.292;2023-05-07T13:30:27;8.63;;;3.60;;
9675;SDS011;4876;42.656;23.292;2023-05-07T13:32:56;3.67;;;3.37;;
9675;SDS011;4876;42.656;23.292;2023-05-07T13:35:23;4.03;;;3.63;;
9675;SDS011;4876;42.656;23.292;2023-05-07T13:37:49;4.33;;;3.40;;
9675;SDS011;4876;42.656;23.292;2023-05-07T13:40:17;5.40;;;3.10;;
9675;SDS011;4876;42.656;23.292;2023-05-07T13:42:44;4.13;;;3.43;;
9675;SDS011;4876;42.656;23.292;2023-05-07T13:45:10;6.00;;;3.47;;
9675;SDS011;4876;42.656;23.292;2023-05-07T13:47:39;6.53;;;3.60;;
9675;SDS011;4876;42.656;23.292;2023-05-07T13:50:08;3.67;;;3.13;;
9675;SDS011;4876;42.656;23.292;2023-05-07T13:52:36;7.10;;;3.20;;
9675;SDS011;4876;42.656;23.292;2023-05-07T13:55:05;5.83;;;3.30;;
9675;SDS011;4876;42.656;23.292;2023-05-07T13:57:32;3.93;;;3.40;;
9675;SDS011;4876;42.656;23.292;2023-05-07T13:59:59;5.57;;;3.40;;
9675;SDS011;4876;42.656;23.292;2023-05-07T14:02:26;5.10;;;3.67;;
9675;SDS011;4876;42.656;23.292;2023-05-07T14:04:53;3.90;;;3.20;;
9675;SDS011;4876;42.656;23.292;2023-05-07T14:07:21;7.40;;;3.73;;
9675;SDS011;4876;42.656;23.292;2023-05-07T14:09:48;3.67;;;3.03;;
9675;SDS011;4876;42.656;23.292;2023-05-07T14:12:14;4.03;;;3.20;;
9675;SDS011;4876;42.656;23.292;2023-05-07T14:14:41;6.43;;;3.20;;
9675;SDS011;4876;42.656;23.292;2023-05-07T14:17:08;5.60;;;3.33;;
9675;SDS011;4876;42.656;23.292;2023-05-07T14:19:34;4.07;;;3.10;;
9675;SDS011;4876;42.656;23.292;2023-05-07T14:22:01;6.23;;;3.10;;
9675;SDS011;4876;42.656;23.292;2023-05-07T14:24:29;8.47;;;3.20;;
9675;SDS011;4876;42.656;23.292;2023-05-07T14:26:56;6.37;;;3.20;;
9675;SDS011;4876;42.656;23.292;2023-05-07T14:29:23;5.60;;;3.40;;
9675;SDS011;4876;42.656;23.292;2023-05-07T14:31:50;5.93;;;3.67;;
9675;SDS011;4876;42.656;23.292;2023-05-07T14:34:16;3.67;;;3.30;;
9675;SDS011;4876;42.656;23.292;2023-05-07T14:36:43;4.47;;;3.57;;
9675;SDS011;4876;42.656;23.292;2023-05-07T14:39:10;4.83;;;3.20;;
9675;SDS011;4876;42.656;23.292;2023-05-07T14:41:38;5.50;;;3.40;;
9675;SDS011;4876;42.656;23.292;2023-05-07T14:44:05;4.00;;;3.43;;
9675;SDS011;4876;42.656;23.292;2023-05-07T14:46:31;8.03;;;3.57;;
9675;SDS011;4876;42.656;23.292;2023-05-07T14:48:58;3.83;;;3.27;;
9675;SDS011;4876;42.656;23.292;2023-05-07T14:51:25;4.80;;;3.37;;
9675;SDS011;4876;42.656;23.292;2023-05-07T14:53:53;8.43;;;3.17;;
9675;SDS011;4876;42.656;23.292;2023-05-07T14:56:20;3.33;;;3.00;;
9675;SDS011;4876;42.656;23.292;2023-05-07T14:58:48;3.53;;;3.23;;
9675;SDS011;4876;42.656;23.292;2023-05-07T15:01:15;8.07;;;3.10;;
9675;SDS011;4876;42.656;23.292;2023-05-07T15:03:42;4.13;;;3.03;;
9675;SDS011;4876;42.656;23.292;2023-05-07T15:06:09;5.63;;;3.33;;
9675;SDS011;4876;42.656;23.292;2023-05-07T15:08:36;3.63;;;3.30;;
9675;SDS011;4876;42.656;23.292;2023-05-07T15:11:02;4.97;;;3.53;;